sensor_id;sensor_type;location;lat;lon;timestamp;temperature;humidity
18335;DHT22;9293;49.524;10.964;2022-11-14T00:00:31;2.70;99.90
18335;DHT22;9293;49.524;10.964;2022-11-14T00:03:18;2.70;99.90
18335;DHT22;9293;49.524;10.964;2022-11-14T00:06:05;2.60;99.90
18335;DHT22;9293;49.524;10.964;2022-11-14T00:08:52;2.60;99.90
18335;DHT22;9293;49.524;10.964;2022-11-14T00:11:39;2.60;99.90
18335;DHT22;9293;49.524;10.964;2022-11-14T00:14:25;2.60;99.90
18335;DHT22;9293;49.524;10.964;2022-11-14T00:17:12;2.70;99.90
18335;DHT22;9293;49.524;10.964;2022-11-14T00:19:58;2.60;99.90
18335;DHT22;9293;49.524;10.964;2022-11-14T00:22:45;2.60;99.90
18335;DHT22;9293;49.524;10.964;2022-11-14T00:25:32;2.60;99.90
18335;DHT22;9293;49.524;10.964;2022-11-14T00:28:21;2.60;99.90
18335;DHT22;9293;49.524;10.964;2022-11-14T00:31:09;2.60;99.90
18335;DHT22;9293;49.524;10.964;2022-11-14T00:33:56;2.70;99.90
18335;DHT22;9293;49.524;10.964;2022-11-14T00:36:42;2.60;99.90
18335;DHT22;9293;49.524;10.964;2022-11-14T00:39:29;2.60;99.90
18335;DHT22;9293;49.524;10.964;2022-11-14T00:42:16;2.50;99.90
18335;DHT22;9293;49.524;10.964;2022-11-14T00:45:02;2.50;99.90
18335;DHT22;9293;49.524;10.964;2022-11-14T00:47:49;2.50;99.90
18335;DHT22;9293;49.524;10.964;2022-11-14T00:50:35;2.50;99.90
18335;DHT22;9293;49.524;10.964;2022-11-14T00:53:23;2.40;99.90
18335;DHT22;9293;49.524;10.964;2022-11-14T00:56:09;2.30;99.90
18335;DHT22;9293;49.524;10.964;2022-11-14T00:58:58;2.40;99.90
18335;DHT22;9293;49.524;10.964;2022-11-14T01:01:45;2.40;99.90
18335;DHT22;9293;49.524;10.964;2022-11-14T01:04:31;2.40;99.90
18335;DHT22;9293;49.524;10.964;2022-11-14T01:07:17;2.40;99.90
18335;DHT22;9293;49.524;10.964;2022-11-14T01:10:04;2.40;99.90
18335;DHT22;9293;49.524;10.964;2022-11-14T01:12:51;2.30;99.90
18335;DHT22;9293;49.524;10.964;2022-11-14T01:15:42;2.30;99.90
18335;DHT22;9293;49.524;10.964;2022-11-14T01:18:29;2.30;99.90
18335;DHT22;9293;49.524;10.964;2022-11-14T01:21:16;2.20;99.90
18335;DHT22;9293;49.524;10.964;2022-11-14T01:24:02;2.20;99.90
18335;DHT22;9293;49.524;10.964;2022-11-14T01:26:49;2.30;99.90
18335;DHT22;9293;49.524;10.964;2022-11-14T01:29:38;2.10;99.90
18335;DHT22;9293;49.524;10.964;2022-11-14T01:32:26;2.00;99.90
18335;DHT22;9293;49.524;10.964;2022-11-14T01:35:13;1.90;99.90
18335;DHT22;9293;49.524;10.964;2022-11-14T01:37:59;1.90;99.90
18335;DHT22;9293;49.524;10.964;2022-11-14T01:40:46;2.00;99.90
18335;DHT22;9293;49.524;10.964;2022-11-14T01:43:35;2.10;99.90
18335;DHT22;9293;49.524;10.964;2022-11-14T01:46:31;2.10;99.90
18335;DHT22;9293;49.524;10.964;2022-11-14T01:49:23;2.10;99.90
18335;DHT22;9293;49.524;10.964;2022-11-14T01:52:20;2.10;99.90
18335;DHT22;9293;49.524;10.964;2022-11-14T01:55:08;2.10;99.90
18335;DHT22;9293;49.524;10.964;2022-11-14T01:57:56;1.80;99.90
18335;DHT22;9293;49.524;10.964;2022-11-14T02:00:43;1.90;99.90
18335;DHT22;9293;49.524;10.964;2022-11-14T02:03:30;1.90;99.90
18335;DHT22;9293;49.524;10.964;2022-11-14T02:06:20;1.90;99.90
18335;DHT22;9293;49.524;10.964;2022-11-14T02:09:08;1.90;99.90
18335;DHT22;9293;49.524;10.964;2022-11-14T02:11:55;1.90;99.90
18335;DHT22;9293;49.524;10.964;2022-11-14T02:14:44;1.90;99.90
18335;DHT22;9293;49.524;10.964;2022-11-14T02:17:32;1.80;99.90
18335;DHT22;9293;49.524;10.964;2022-11-14T02:20:19;1.70;99.90
18335;DHT22;9293;49.524;10.964;2022-11-14T02:23:11;1.80;99.90
18335;DHT22;9293;49.524;10.964;2022-11-14T02:25:58;1.80;99.90
18335;DHT22;9293;49.524;10.964;2022-11-14T02:28:45;1.80;99.90
18335;DHT22;9293;49.524;10.964;2022-11-14T02:31:32;1.70;99.90
18335;DHT22;9293;49.524;10.964;2022-11-14T02:34:18;1.80;99.90
18335;DHT22;9293;49.524;10.964;2022-11-14T02:37:06;1.80;99.90
18335;DHT22;9293;49.524;10.964;2022-11-14T02:39:52;1.80;99.90
18335;DHT22;9293;49.524;10.964;2022-11-14T02:42:39;1.70;99.90
18335;DHT22;9293;49.524;10.964;2022-11-14T02:45:25;1.70;99.90
18335;DHT22;9293;49.524;10.964;2022-11-14T02:48:12;1.70;99.90
18335;DHT22;9293;49.524;10.964;2022-11-14T02:50:58;1.60;99.90
18335;DHT22;9293;49.524;10.964;2022-11-14T02:53:48;1.70;99.90
18335;DHT22;9293;49.524;10.964;2022-11-14T02:56:35;1.60;99.90
18335;DHT22;9293;49.524;10.964;2022-11-14T02:59:21;1.70;99.90
18335;DHT22;9293;49.524;10.964;2022-11-14T03:02:08;1.70;99.90
18335;DHT22;9293;49.524;10.964;2022-11-14T03:04:54;1.70;99.90
18335;DHT22;9293;49.524;10.964;2022-11-14T03:07:41;1.60;99.90
18335;DHT22;9293;49.524;10.964;2022-11-14T03:10:27;1.60;99.90
18335;DHT22;9293;49.524;10.964;2022-11-14T03:13:14;1.60;99.90
18335;DHT22;9293;49.524;10.964;2022-11-14T03:16:09;1.50;99.90
18335;DHT22;9293;49.524;10.964;2022-11-14T03:18:56;1.60;99.90
18335;DHT22;9293;49.524;10.964;2022-11-14T03:21:42;1.50;99.90
18335;DHT22;9293;49.524;10.964;2022-11-14T03:24:29;1.50;99.90
18335;DHT22;9293;49.524;10.964;2022-11-14T03:27:15;1.50;99.90
18335;DHT22;9293;49.524;10.964;2022-11-14T03:30:02;1.50;99.90
18335;DHT22;9293;49.524;10.964;2022-11-14T03:32:48;1.40;99.90
18335;DHT22;9293;49.524;10.964;2022-11-14T03:35:35;1.40;99.90
18335;DHT22;9293;49.524;10.964;2022-11-14T03:38:21;1.30;99.90
18335;DHT22;9293;49.524;10.964;2022-11-14T03:41:08;1.20;99.90
18335;DHT22;9293;49.524;10.964;2022-11-14T03:43:55;1.20;99.90
18335;DHT22;9293;49.524;10.964;2022-11-14T03:46:41;1.20;99.90
18335;DHT22;9293;49.524;10.964;2022-11-14T03:49:28;1.20;99.90
18335;DHT22;9293;49.524;10.964;2022-11-14T03:52:14;1.30;99.90
18335;DHT22;9293;49.524;10.964;2022-11-14T03:55:01;1.30;99.90
18335;DHT22;9293;49.524;10.964;2022-11-14T03:57:51;1.30;99.90
18335;DHT22;9293;49.524;10.964;2022-11-14T04:00:38;1.30;99.90
18335;DHT22;9293;49.524;10.964;2022-11-14T04:03:25;1.30;99.90
18335;DHT22;9293;49.524;10.964;2022-11-14T04:06:11;1.30;99.90
18335;DHT22;9293;49.524;10.964;2022-11-14T04:08:58;1.10;99.90
18335;DHT22;9293;49.524;10.964;2022-11-14T04:11:45;1.10;99.90
18335;DHT22;9293;49.524;10.964;2022-11-14T04:14:31;1.10;99.90
18335;DHT22;9293;49.524;10.964;2022-11-14T04:17:17;1.20;99.90
18335;DHT22;9293;49.524;10.964;2022-11-14T04:20:04;1.20;99.90
18335;DHT22;9293;49.524;10.964;2022-11-14T04:22:51;1.30;99.90
18335;DHT22;9293;49.524;10.964;2022-11-14T04:25:38;1.30;99.90
18335;DHT22;9293;49.524;10.964;2022-11-14T04:28:24;1.40;99.90
18335;DHT22;9293;49.524;10.964;2022-11-14T04:31:11;1.40;99.90
18335;DHT22;9293;49.524;10.964;2022-11-14T04:33:58;1.50;99.90
18335;DHT22;9293;49.524;10.964;2022-11-14T04:36:45;1.50;99.90
18335;DHT22;9293;49.524;10.964;2022-11-14T04:39:31;1.40;99.90
18335;DHT22;9293;49.524;10.964;2022-11-14T04:42:18;1.40;99.90
18335;DHT22;9293;49.524;10.964;2022-11-14T04:45:05;1.40;99.90
18335;DHT22;9293;49.524;10.964;2022-11-14T04:47:52;1.50;99.90
18335;DHT22;9293;49.524;10.964;2022-11-14T04:50:39;1.40;99.90
18335;DHT22;9293;49.524;10.964;2022-11-14T04:53:25;1.40;99.90
18335;DHT22;9293;49.524;10.964;2022-11-14T04:56:12;1.40;99.90
18335;DHT22;9293;49.524;10.964;2022-11-14T04:58:58;1.50;99.90
18335;DHT22;9293;49.524;10.964;2022-11-14T05:01:45;1.50;99.90
18335;DHT22;9293;49.524;10.964;2022-11-14T05:04:31;1.50;99.90
18335;DHT22;9293;49.524;10.964;2022-11-14T05:07:18;1.40;99.90
18335;DHT22;9293;49.524;10.964;2022-11-14T05:10:05;1.50;99.90
18335;DHT22;9293;49.524;10.964;2022-11-14T05:12:52;1.50;99.90
18335;DHT22;9293;49.524;10.964;2022-11-14T05:15:39;1.50;99.90
18335;DHT22;9293;49.524;10.964;2022-11-14T05:18:26;1.50;99.90
18335;DHT22;9293;49.524;10.964;2022-11-14T05:21:14;1.50;99.90
18335;DHT22;9293;49.524;10.964;2022-11-14T05:24:01;1.50;99.90
18335;DHT22;9293;49.524;10.964;2022-11-14T05:26:48;1.50;99.90
18335;DHT22;9293;49.524;10.964;2022-11-14T05:29:37;1.50;99.90
18335;DHT22;9293;49.524;10.964;2022-11-14T05:32:23;1.40;99.90
18335;DHT22;9293;49.524;10.964;2022-11-14T05:35:10;1.40;99.90
18335;DHT22;9293;49.524;10.964;2022-11-14T05:37:59;1.40;99.90
18335;DHT22;9293;49.524;10.964;2022-11-14T05:40:49;1.40;99.90
18335;DHT22;9293;49.524;10.964;2022-11-14T05:43:36;1.40;99.90
18335;DHT22;9293;49.524;10.964;2022-11-14T05:46:25;1.30;99.90
18335;DHT22;9293;49.524;10.964;2022-11-14T05:49:12;1.20;99.90
18335;DHT22;9293;49.524;10.964;2022-11-14T05:52:05;1.20;99.90
18335;DHT22;9293;49.524;10.964;2022-11-14T05:54:51;1.20;99.90
18335;DHT22;9293;49.524;10.964;2022-11-14T05:57:38;1.20;99.90
18335;DHT22;9293;49.524;10.964;2022-11-14T06:00:25;1.10;99.90
18335;DHT22;9293;49.524;10.964;2022-11-14T06:03:12;1.20;99.90
18335;DHT22;9293;49.524;10.964;2022-11-14T06:06:02;1.30;99.90
18335;DHT22;9293;49.524;10.964;2022-11-14T06:08:49;1.30;99.90
18335;DHT22;9293;49.524;10.964;2022-11-14T06:11:35;1.30;99.90
18335;DHT22;9293;49.524;10.964;2022-11-14T06:14:22;1.30;99.90
18335;DHT22;9293;49.524;10.964;2022-11-14T06:17:12;1.30;99.90
18335;DHT22;9293;49.524;10.964;2022-11-14T06:19:58;1.20;99.90
18335;DHT22;9293;49.524;10.964;2022-11-14T06:22:45;1.20;99.90
18335;DHT22;9293;49.524;10.964;2022-11-14T06:25:32;1.20;99.90
18335;DHT22;9293;49.524;10.964;2022-11-14T06:28:18;1.20;99.90
18335;DHT22;9293;49.524;10.964;2022-11-14T06:31:05;1.20;99.90
18335;DHT22;9293;49.524;10.964;2022-11-14T06:33:52;1.30;99.90
18335;DHT22;9293;49.524;10.964;2022-11-14T06:36:39;1.20;99.90
18335;DHT22;9293;49.524;10.964;2022-11-14T06:39:25;1.20;99.90
18335;DHT22;9293;49.524;10.964;2022-11-14T06:42:12;1.20;99.90
18335;DHT22;9293;49.524;10.964;2022-11-14T06:45:00;1.20;99.90
18335;DHT22;9293;49.524;10.964;2022-11-14T06:47:50;1.20;99.90
18335;DHT22;9293;49.524;10.964;2022-11-14T06:50:37;1.30;99.90
18335;DHT22;9293;49.524;10.964;2022-11-14T06:53:24;1.50;99.90
18335;DHT22;9293;49.524;10.964;2022-11-14T06:56:13;1.70;99.90
18335;DHT22;9293;49.524;10.964;2022-11-14T06:59:05;1.80;99.90
18335;DHT22;9293;49.524;10.964;2022-11-14T07:01:53;1.80;99.90
18335;DHT22;9293;49.524;10.964;2022-11-14T07:04:40;2.00;99.90
18335;DHT22;9293;49.524;10.964;2022-11-14T07:07:30;2.20;99.90
18335;DHT22;9293;49.524;10.964;2022-11-14T07:10:17;2.30;99.90
18335;DHT22;9293;49.524;10.964;2022-11-14T07:13:04;2.40;99.90
18335;DHT22;9293;49.524;10.964;2022-11-14T07:15:57;2.60;99.90
18335;DHT22;9293;49.524;10.964;2022-11-14T07:18:43;2.70;99.90
18335;DHT22;9293;49.524;10.964;2022-11-14T07:21:30;2.80;99.90
18335;DHT22;9293;49.524;10.964;2022-11-14T07:24:17;2.90;99.90
18335;DHT22;9293;49.524;10.964;2022-11-14T07:27:04;3.10;99.90
18335;DHT22;9293;49.524;10.964;2022-11-14T07:29:53;3.50;99.90
18335;DHT22;9293;49.524;10.964;2022-11-14T07:32:40;4.10;99.90
18335;DHT22;9293;49.524;10.964;2022-11-14T07:35:26;4.70;99.90
18335;DHT22;9293;49.524;10.964;2022-11-14T07:38:13;5.30;99.90
18335;DHT22;9293;49.524;10.964;2022-11-14T07:41:02;5.60;99.90
18335;DHT22;9293;49.524;10.964;2022-11-14T07:43:49;6.00;99.90
18335;DHT22;9293;49.524;10.964;2022-11-14T07:46:36;6.30;99.90
18335;DHT22;9293;49.524;10.964;2022-11-14T07:49:22;6.60;99.90
18335;DHT22;9293;49.524;10.964;2022-11-14T07:52:09;6.80;99.90
18335;DHT22;9293;49.524;10.964;2022-11-14T07:54:56;6.70;99.90
18335;DHT22;9293;49.524;10.964;2022-11-14T07:57:42;6.50;99.90
18335;DHT22;9293;49.524;10.964;2022-11-14T08:00:33;6.10;99.90
18335;DHT22;9293;49.524;10.964;2022-11-14T08:03:20;5.90;99.90
18335;DHT22;9293;49.524;10.964;2022-11-14T08:06:12;5.70;99.90
18335;DHT22;9293;49.524;10.964;2022-11-14T08:09:01;5.60;99.90
18335;DHT22;9293;49.524;10.964;2022-11-14T08:11:47;5.60;99.90
18335;DHT22;9293;49.524;10.964;2022-11-14T08:14:34;5.60;99.90
18335;DHT22;9293;49.524;10.964;2022-11-14T08:17:21;5.60;99.90
18335;DHT22;9293;49.524;10.964;2022-11-14T08:20:08;5.70;99.90
18335;DHT22;9293;49.524;10.964;2022-11-14T08:23:03;5.70;99.90
18335;DHT22;9293;49.524;10.964;2022-11-14T08:25:50;5.70;99.90
18335;DHT22;9293;49.524;10.964;2022-11-14T08:28:36;5.80;99.90
18335;DHT22;9293;49.524;10.964;2022-11-14T08:31:23;5.90;99.90
18335;DHT22;9293;49.524;10.964;2022-11-14T08:34:10;6.00;99.90
18335;DHT22;9293;49.524;10.964;2022-11-14T08:36:56;6.10;99.90
18335;DHT22;9293;49.524;10.964;2022-11-14T08:39:43;6.20;99.90
18335;DHT22;9293;49.524;10.964;2022-11-14T08:42:29;6.30;99.90
18335;DHT22;9293;49.524;10.964;2022-11-14T08:45:16;6.30;99.90
18335;DHT22;9293;49.524;10.964;2022-11-14T08:48:03;6.40;99.90
18335;DHT22;9293;49.524;10.964;2022-11-14T08:50:49;6.50;99.90
18335;DHT22;9293;49.524;10.964;2022-11-14T08:53:36;6.50;99.90
18335;DHT22;9293;49.524;10.964;2022-11-14T08:56:22;6.60;99.90
18335;DHT22;9293;49.524;10.964;2022-11-14T08:59:09;6.70;99.90
18335;DHT22;9293;49.524;10.964;2022-11-14T09:01:56;6.80;99.90
18335;DHT22;9293;49.524;10.964;2022-11-14T09:04:42;6.80;99.90
18335;DHT22;9293;49.524;10.964;2022-11-14T09:07:29;6.90;99.90
18335;DHT22;9293;49.524;10.964;2022-11-14T09:10:15;7.00;99.90
18335;DHT22;9293;49.524;10.964;2022-11-14T09:13:02;7.00;99.90
18335;DHT22;9293;49.524;10.964;2022-11-14T09:15:48;7.00;99.90
18335;DHT22;9293;49.524;10.964;2022-11-14T09:18:36;7.00;99.90
18335;DHT22;9293;49.524;10.964;2022-11-14T09:21:23;7.10;99.90
18335;DHT22;9293;49.524;10.964;2022-11-14T09:24:09;7.20;99.90
18335;DHT22;9293;49.524;10.964;2022-11-14T09:26:55;7.30;99.90
18335;DHT22;9293;49.524;10.964;2022-11-14T09:29:42;7.40;99.90
18335;DHT22;9293;49.524;10.964;2022-11-14T09:32:28;7.50;99.90
18335;DHT22;9293;49.524;10.964;2022-11-14T09:35:15;7.60;99.90
18335;DHT22;9293;49.524;10.964;2022-11-14T09:38:04;7.70;99.90
18335;DHT22;9293;49.524;10.964;2022-11-14T09:41:13;7.80;99.90
18335;DHT22;9293;49.524;10.964;2022-11-14T09:47:12;8.00;99.90
18335;DHT22;9293;49.524;10.964;2022-11-14T09:53:30;8.10;99.90
18335;DHT22;9293;49.524;10.964;2022-11-14T09:56:22;8.20;99.90
18335;DHT22;9293;49.524;10.964;2022-11-14T09:59:15;8.30;99.90
18335;DHT22;9293;49.524;10.964;2022-11-14T10:05:19;8.40;99.90
18335;DHT22;9293;49.524;10.964;2022-11-14T10:20:33;9.00;99.90
18335;DHT22;9293;49.524;10.964;2022-11-14T10:26:37;9.10;99.90
18335;DHT22;9293;49.524;10.964;2022-11-14T10:35:17;9.50;99.90
18335;DHT22;9293;49.524;10.964;2022-11-14T10:38:28;9.60;99.90
18335;DHT22;9293;49.524;10.964;2022-11-14T10:41:16;9.70;99.90
18335;DHT22;9293;49.524;10.964;2022-11-14T10:44:28;9.80;99.90
18335;DHT22;9293;49.524;10.964;2022-11-14T10:47:19;9.90;99.90
18335;DHT22;9293;49.524;10.964;2022-11-14T10:53:16;10.10;99.90
18335;DHT22;9293;49.524;10.964;2022-11-14T10:56:04;10.30;99.90
18335;DHT22;9293;49.524;10.964;2022-11-14T10:58:51;10.40;99.90
18335;DHT22;9293;49.524;10.964;2022-11-14T11:01:40;10.50;99.90
18335;DHT22;9293;49.524;10.964;2022-11-14T11:04:35;10.70;99.90
18335;DHT22;9293;49.524;10.964;2022-11-14T11:07:24;10.80;99.90
18335;DHT22;9293;49.524;10.964;2022-11-14T11:10:38;10.80;99.90
18335;DHT22;9293;49.524;10.964;2022-11-14T11:13:57;10.80;99.90
18335;DHT22;9293;49.524;10.964;2022-11-14T11:16:45;10.90;99.90
18335;DHT22;9293;49.524;10.964;2022-11-14T11:19:33;10.90;99.90
18335;DHT22;9293;49.524;10.964;2022-11-14T11:25:26;11.10;99.90
18335;DHT22;9293;49.524;10.964;2022-11-14T11:28:18;11.20;99.90
18335;DHT22;9293;49.524;10.964;2022-11-14T11:31:10;11.30;99.90
18335;DHT22;9293;49.524;10.964;2022-11-14T11:34:02;11.40;99.90
18335;DHT22;9293;49.524;10.964;2022-11-14T11:40:02;11.60;99.90
18335;DHT22;9293;49.524;10.964;2022-11-14T11:42:57;11.70;99.90
18335;DHT22;9293;49.524;10.964;2022-11-14T11:46:14;11.80;99.90
18335;DHT22;9293;49.524;10.964;2022-11-14T11:49:16;12.00;99.90
18335;DHT22;9293;49.524;10.964;2022-11-14T11:52:11;12.00;99.90
18335;DHT22;9293;49.524;10.964;2022-11-14T11:55:16;12.10;99.90
18335;DHT22;9293;49.524;10.964;2022-11-14T12:00:58;12.20;99.90
18335;DHT22;9293;49.524;10.964;2022-11-14T12:03:51;12.20;99.90
18335;DHT22;9293;49.524;10.964;2022-11-14T12:07:28;12.10;99.90
18335;DHT22;9293;49.524;10.964;2022-11-14T12:10:27;12.10;99.90
18335;DHT22;9293;49.524;10.964;2022-11-14T12:19:14;12.20;99.90
18335;DHT22;9293;49.524;10.964;2022-11-14T12:31:13;12.20;99.90
18335;DHT22;9293;49.524;10.964;2022-11-14T12:34:28;12.30;99.90
18335;DHT22;9293;49.524;10.964;2022-11-14T12:37:33;12.30;99.90
18335;DHT22;9293;49.524;10.964;2022-11-14T12:40:25;12.30;99.90
18335;DHT22;9293;49.524;10.964;2022-11-14T12:43:33;12.30;99.90
18335;DHT22;9293;49.524;10.964;2022-11-14T12:46:22;12.40;99.90
18335;DHT22;9293;49.524;10.964;2022-11-14T12:52:44;12.90;99.90
18335;DHT22;9293;49.524;10.964;2022-11-14T13:10:34;12.80;99.90
18335;DHT22;9293;49.524;10.964;2022-11-14T13:13:22;12.80;99.90
18335;DHT22;9293;49.524;10.964;2022-11-14T13:16:31;12.80;99.90
18335;DHT22;9293;49.524;10.964;2022-11-14T13:19:44;12.80;99.90
18335;DHT22;9293;49.524;10.964;2022-11-14T13:22:50;12.90;99.90
18335;DHT22;9293;49.524;10.964;2022-11-14T13:25:37;12.90;99.90
18335;DHT22;9293;49.524;10.964;2022-11-14T13:28:49;12.90;99.90
18335;DHT22;9293;49.524;10.964;2022-11-14T13:31:47;12.90;99.90
18335;DHT22;9293;49.524;10.964;2022-11-14T13:34:53;12.90;99.90
18335;DHT22;9293;49.524;10.964;2022-11-14T13:44:47;12.90;99.90
18335;DHT22;9293;49.524;10.964;2022-11-14T13:50:54;13.00;99.90
18335;DHT22;9293;49.524;10.964;2022-11-14T13:53:51;13.00;99.90
18335;DHT22;9293;49.524;10.964;2022-11-14T13:59:39;12.90;99.90
18335;DHT22;9293;49.524;10.964;2022-11-14T14:12:30;12.90;99.90
18335;DHT22;9293;49.524;10.964;2022-11-14T14:18:39;12.80;99.90
18335;DHT22;9293;49.524;10.964;2022-11-14T14:24:37;12.70;99.90
18335;DHT22;9293;49.524;10.964;2022-11-14T14:27:45;12.60;99.90
18335;DHT22;9293;49.524;10.964;2022-11-14T14:30:35;12.50;99.90
18335;DHT22;9293;49.524;10.964;2022-11-14T14:33:21;12.40;99.90
18335;DHT22;9293;49.524;10.964;2022-11-14T14:36:20;12.40;99.90
18335;DHT22;9293;49.524;10.964;2022-11-14T14:39:19;12.30;99.90
18335;DHT22;9293;49.524;10.964;2022-11-14T14:42:10;12.20;99.90
18335;DHT22;9293;49.524;10.964;2022-11-14T14:44:57;12.10;99.90
18335;DHT22;9293;49.524;10.964;2022-11-14T14:48:05;12.10;99.90
18335;DHT22;9293;49.524;10.964;2022-11-14T14:50:57;12.10;99.90
18335;DHT22;9293;49.524;10.964;2022-11-14T14:53:51;12.00;99.90
18335;DHT22;9293;49.524;10.964;2022-11-14T14:56:38;11.90;99.90
18335;DHT22;9293;49.524;10.964;2022-11-14T14:59:27;11.80;99.90
18335;DHT22;9293;49.524;10.964;2022-11-14T15:02:16;11.80;99.90
18335;DHT22;9293;49.524;10.964;2022-11-14T15:05:04;11.70;99.90
18335;DHT22;9293;49.524;10.964;2022-11-14T15:07:52;11.70;99.90
18335;DHT22;9293;49.524;10.964;2022-11-14T15:10:40;11.70;99.90
18335;DHT22;9293;49.524;10.964;2022-11-14T15:13:28;11.70;99.90
18335;DHT22;9293;49.524;10.964;2022-11-14T15:16:16;11.60;99.90
18335;DHT22;9293;49.524;10.964;2022-11-14T15:19:06;11.50;99.90
18335;DHT22;9293;49.524;10.964;2022-11-14T15:22:02;11.50;99.90
18335;DHT22;9293;49.524;10.964;2022-11-14T15:27:57;11.40;99.90
18335;DHT22;9293;49.524;10.964;2022-11-14T15:31:00;11.30;99.90
18335;DHT22;9293;49.524;10.964;2022-11-14T15:34:01;11.30;99.90
18335;DHT22;9293;49.524;10.964;2022-11-14T15:40:21;11.10;99.90
18335;DHT22;9293;49.524;10.964;2022-11-14T15:43:45;11.10;99.90
18335;DHT22;9293;49.524;10.964;2022-11-14T15:49:23;11.00;99.90
18335;DHT22;9293;49.524;10.964;2022-11-14T15:52:31;10.90;99.90
18335;DHT22;9293;49.524;10.964;2022-11-14T15:55:23;10.80;99.90
18335;DHT22;9293;49.524;10.964;2022-11-14T15:58:11;10.70;99.90
18335;DHT22;9293;49.524;10.964;2022-11-14T16:01:17;10.60;99.90
18335;DHT22;9293;49.524;10.964;2022-11-14T16:07:18;10.40;99.90
18335;DHT22;9293;49.524;10.964;2022-11-14T16:10:16;10.20;99.90
18335;DHT22;9293;49.524;10.964;2022-11-14T16:13:03;10.20;99.90
18335;DHT22;9293;49.524;10.964;2022-11-14T16:15:50;10.00;99.90
18335;DHT22;9293;49.524;10.964;2022-11-14T16:18:36;9.80;99.90
18335;DHT22;9293;49.524;10.964;2022-11-14T16:21:23;9.70;99.90
18335;DHT22;9293;49.524;10.964;2022-11-14T16:24:13;9.70;99.90
18335;DHT22;9293;49.524;10.964;2022-11-14T16:27:01;9.60;99.90
18335;DHT22;9293;49.524;10.964;2022-11-14T16:29:47;9.50;99.90
18335;DHT22;9293;49.524;10.964;2022-11-14T16:32:34;9.40;99.90
18335;DHT22;9293;49.524;10.964;2022-11-14T16:35:22;9.30;99.90
18335;DHT22;9293;49.524;10.964;2022-11-14T16:38:29;9.20;99.90
18335;DHT22;9293;49.524;10.964;2022-11-14T16:41:16;9.20;99.90
18335;DHT22;9293;49.524;10.964;2022-11-14T16:44:03;9.10;99.90
18335;DHT22;9293;49.524;10.964;2022-11-14T16:46:51;8.90;99.90
18335;DHT22;9293;49.524;10.964;2022-11-14T16:49:38;8.90;99.90
18335;DHT22;9293;49.524;10.964;2022-11-14T16:52:24;9.00;99.90
18335;DHT22;9293;49.524;10.964;2022-11-14T16:55:12;8.80;99.90
18335;DHT22;9293;49.524;10.964;2022-11-14T16:57:58;8.70;99.90
18335;DHT22;9293;49.524;10.964;2022-11-14T17:00:45;8.60;99.90
18335;DHT22;9293;49.524;10.964;2022-11-14T17:03:31;8.60;99.90
18335;DHT22;9293;49.524;10.964;2022-11-14T17:06:18;8.60;99.90
18335;DHT22;9293;49.524;10.964;2022-11-14T17:09:05;8.60;99.90
18335;DHT22;9293;49.524;10.964;2022-11-14T17:11:51;8.60;99.90
18335;DHT22;9293;49.524;10.964;2022-11-14T17:14:38;8.50;99.90
18335;DHT22;9293;49.524;10.964;2022-11-14T17:17:24;8.40;99.90
18335;DHT22;9293;49.524;10.964;2022-11-14T17:20:15;8.40;99.90
18335;DHT22;9293;49.524;10.964;2022-11-14T17:23:01;8.30;99.90
18335;DHT22;9293;49.524;10.964;2022-11-14T17:25:48;8.30;99.90
18335;DHT22;9293;49.524;10.964;2022-11-14T17:28:35;8.20;99.90
18335;DHT22;9293;49.524;10.964;2022-11-14T17:31:23;8.20;99.90
18335;DHT22;9293;49.524;10.964;2022-11-14T17:34:10;8.10;99.90
18335;DHT22;9293;49.524;10.964;2022-11-14T17:37:00;8.10;99.90
18335;DHT22;9293;49.524;10.964;2022-11-14T17:39:46;8.10;99.90
18335;DHT22;9293;49.524;10.964;2022-11-14T17:42:32;8.00;99.90
18335;DHT22;9293;49.524;10.964;2022-11-14T17:45:19;8.00;99.90
18335;DHT22;9293;49.524;10.964;2022-11-14T17:48:06;7.90;99.90
18335;DHT22;9293;49.524;10.964;2022-11-14T17:51:05;7.80;99.90
18335;DHT22;9293;49.524;10.964;2022-11-14T17:53:52;7.70;99.90
18335;DHT22;9293;49.524;10.964;2022-11-14T17:56:39;7.70;99.90
18335;DHT22;9293;49.524;10.964;2022-11-14T17:59:34;7.60;99.90
18335;DHT22;9293;49.524;10.964;2022-11-14T18:02:22;7.50;99.90
18335;DHT22;9293;49.524;10.964;2022-11-14T18:05:08;7.40;99.90
18335;DHT22;9293;49.524;10.964;2022-11-14T18:07:55;7.40;99.90
18335;DHT22;9293;49.524;10.964;2022-11-14T18:10:42;7.30;99.90
18335;DHT22;9293;49.524;10.964;2022-11-14T18:13:29;7.30;99.90
18335;DHT22;9293;49.524;10.964;2022-11-14T18:16:18;7.30;99.90
18335;DHT22;9293;49.524;10.964;2022-11-14T18:19:05;7.30;99.90
18335;DHT22;9293;49.524;10.964;2022-11-14T18:21:51;7.30;99.90
18335;DHT22;9293;49.524;10.964;2022-11-14T18:24:38;7.30;99.90
18335;DHT22;9293;49.524;10.964;2022-11-14T18:27:28;7.30;99.90
18335;DHT22;9293;49.524;10.964;2022-11-14T18:30:14;7.20;99.90
18335;DHT22;9293;49.524;10.964;2022-11-14T18:33:23;7.10;99.90
18335;DHT22;9293;49.524;10.964;2022-11-14T18:36:11;7.10;99.90
18335;DHT22;9293;49.524;10.964;2022-11-14T18:38:57;7.00;99.90
18335;DHT22;9293;49.524;10.964;2022-11-14T18:41:44;7.00;99.90
18335;DHT22;9293;49.524;10.964;2022-11-14T18:44:31;7.00;99.90
18335;DHT22;9293;49.524;10.964;2022-11-14T18:47:17;7.10;99.90
18335;DHT22;9293;49.524;10.964;2022-11-14T18:50:04;7.10;99.90
18335;DHT22;9293;49.524;10.964;2022-11-14T18:52:51;7.10;99.90
18335;DHT22;9293;49.524;10.964;2022-11-14T18:55:38;7.00;99.90
18335;DHT22;9293;49.524;10.964;2022-11-14T18:58:25;7.00;99.90
18335;DHT22;9293;49.524;10.964;2022-11-14T19:01:13;6.90;99.90
18335;DHT22;9293;49.524;10.964;2022-11-14T19:04:05;6.90;99.90
18335;DHT22;9293;49.524;10.964;2022-11-14T19:06:52;6.70;99.90
18335;DHT22;9293;49.524;10.964;2022-11-14T19:09:38;6.70;99.90
18335;DHT22;9293;49.524;10.964;2022-11-14T19:12:25;6.70;99.90
18335;DHT22;9293;49.524;10.964;2022-11-14T19:15:11;6.70;99.90
18335;DHT22;9293;49.524;10.964;2022-11-14T19:17:57;6.70;99.90
18335;DHT22;9293;49.524;10.964;2022-11-14T19:21:01;6.60;99.90
18335;DHT22;9293;49.524;10.964;2022-11-14T19:23:47;6.70;99.90
18335;DHT22;9293;49.524;10.964;2022-11-14T19:26:35;6.70;99.90
18335;DHT22;9293;49.524;10.964;2022-11-14T19:29:22;6.70;99.90
18335;DHT22;9293;49.524;10.964;2022-11-14T19:32:08;6.60;99.90
18335;DHT22;9293;49.524;10.964;2022-11-14T19:34:55;6.60;99.90
18335;DHT22;9293;49.524;10.964;2022-11-14T19:37:41;6.40;99.90
18335;DHT22;9293;49.524;10.964;2022-11-14T19:40:28;6.40;99.90
18335;DHT22;9293;49.524;10.964;2022-11-14T19:43:15;6.30;99.90
18335;DHT22;9293;49.524;10.964;2022-11-14T19:46:06;6.20;99.90
18335;DHT22;9293;49.524;10.964;2022-11-14T19:48:56;6.20;99.90
18335;DHT22;9293;49.524;10.964;2022-11-14T19:51:43;6.20;99.90
18335;DHT22;9293;49.524;10.964;2022-11-14T19:54:43;6.20;99.90
18335;DHT22;9293;49.524;10.964;2022-11-14T19:57:31;6.20;99.90
18335;DHT22;9293;49.524;10.964;2022-11-14T20:00:18;6.10;99.90
18335;DHT22;9293;49.524;10.964;2022-11-14T20:03:05;6.10;99.90